createdAt,value
2019-03-28T00:04:58.823Z,101744.16
2019-03-28T00:10:02.737Z,101748.52
2019-03-28T00:15:08.182Z,101745.16
2019-03-28T00:20:12.046Z,101739.61
2019-03-28T00:25:19.630Z,101739.99
2019-03-28T00:30:23.097Z,101744.74
2019-03-28T00:35:26.549Z,101746.72
2019-03-28T00:40:30.276Z,101737.59
2019-03-28T00:45:33.844Z,101737.20
2019-03-28T00:50:37.303Z,101733.22
2019-03-28T00:55:40.764Z,101733.22
2019-03-28T01:00:44.227Z,101732.25
2019-03-28T01:05:48.317Z,101737.20
2019-03-28T01:10:51.776Z,101732.25
2019-03-28T01:15:55.233Z,101735.02
2019-03-28T01:20:58.692Z,101729.26
2019-03-28T01:26:02.147Z,101724.89
2019-03-28T01:31:05.605Z,101733.22
2019-03-28T01:36:09.060Z,101727.66
2019-03-28T01:41:12.524Z,101721.11
2019-03-28T01:46:15.986Z,101720.30
2019-03-28T01:51:19.449Z,101716.14
2019-03-28T01:56:25.110Z,101711.39
2019-03-28T02:01:28.126Z,101716.14
2019-03-28T02:06:31.590Z,101713.96
2019-03-28T02:11:35.058Z,101705.05
2019-03-28T02:16:38.522Z,101711.77
2019-03-28T02:21:41.988Z,101708.79
2019-03-28T02:26:45.450Z,101715.73
2019-03-28T02:31:48.907Z,101713.75
2019-03-28T02:36:52.367Z,101724.05
2019-03-28T02:41:55.820Z,101720.51
2019-03-28T02:46:59.278Z,101722.48
2019-03-28T02:52:02.773Z,101722.48
2019-03-28T02:57:06.193Z,101724.67
2019-03-28T03:02:09.650Z,101722.66
2019-03-28T03:07:13.107Z,101722.27
2019-03-28T03:12:16.562Z,101721.27
2019-03-28T03:17:20.016Z,101713.32
2019-03-28T03:22:23.474Z,101716.30
2019-03-28T03:27:26.937Z,101718.11
2019-03-28T03:32:30.397Z,101722.66
2019-03-28T03:37:33.847Z,101719.88
2019-03-28T03:42:37.374Z,101736.94
2019-03-28T03:47:40.831Z,101730.17
2019-03-28T03:52:44.295Z,101739.89
2019-03-28T03:57:47.759Z,101739.89
2019-03-28T04:02:51.236Z,101730.77
2019-03-28T04:07:54.682Z,101738.50
2019-03-28T04:12:58.168Z,101734.92
2019-03-28T04:18:01.606Z,101736.31
2019-03-28T04:23:05.066Z,101744.05
2019-03-28T04:28:08.539Z,101741.27
2019-03-28T04:33:12.081Z,101747.41
2019-03-28T04:38:15.519Z,101749.17
2019-03-28T04:43:18.986Z,101753.34
2019-03-28T04:48:22.436Z,101758.13
2019-03-28T04:53:25.902Z,101762.50
2019-03-28T04:58:29.365Z,101757.16
2019-03-28T05:03:32.822Z,101761.11
2019-03-28T05:08:36.286Z,101761.87
2019-03-28T05:13:39.750Z,101765.82
2019-03-28T05:18:43.213Z,101767.62
2019-03-28T05:23:46.676Z,101766.03
2019-03-28T05:28:57.531Z,101774.14
2019-03-28T05:33:55.311Z,101771.37
2019-03-28T05:38:58.800Z,101774.94
2019-03-28T05:44:02.287Z,101781.67
2019-03-28T05:49:05.739Z,101773.34
2019-03-28T05:54:09.230Z,101782.25
2019-03-28T05:59:12.709Z,101775.31
2019-03-28T06:04:16.183Z,101787.62
2019-03-28T06:09:19.667Z,101794.55
2019-03-28T06:14:23.146Z,101794.94
2019-03-28T06:19:26.632Z,101803.25
2019-03-28T06:24:30.100Z,101798.88
2019-03-28T06:29:33.575Z,101802.45
2019-03-28T06:34:37.045Z,101808.22
2019-03-28T06:39:40.518Z,101810.78
2019-03-28T06:44:43.992Z,101807.20
2019-03-28T06:49:47.450Z,101809.98
2019-03-28T06:54:50.925Z,101809.98
2019-03-28T06:59:54.387Z,101814.73
2019-03-28T07:04:57.844Z,101825.02
2019-03-28T07:10:02.587Z,101820.66
2019-03-28T07:15:08.149Z,101834.52
2019-03-28T07:20:12.049Z,101832.55
2019-03-28T07:25:15.503Z,101837.50
2019-03-28T07:30:19.658Z,101840.28
2019-03-28T07:35:23.162Z,101843.44
2019-03-28T07:40:26.697Z,101840.66
2019-03-28T07:45:30.153Z,101843.22
2019-03-28T07:50:33.682Z,101844.68
2019-03-28T07:55:37.146Z,101849.33
2019-03-28T08:00:40.603Z,101852.61
2019-03-28T08:05:44.060Z,101849.88
2019-03-28T08:10:47.541Z,101847.47
2019-03-28T08:15:51.023Z,101850.25
2019-03-28T08:20:54.493Z,101852.12
2019-03-28T08:25:57.976Z,101845.47
2019-03-28T08:31:01.721Z,101847.55
2019-03-28T08:36:05.609Z,101856.75
2019-03-28T08:41:09.083Z,101849.52
2019-03-28T08:46:12.560Z,101856.24
2019-03-28T08:51:16.039Z,101861.20
2019-03-28T08:56:19.516Z,101866.94
2019-03-28T09:01:23.904Z,101872.27
2019-03-28T09:06:27.366Z,101880.95
2019-03-28T09:11:30.842Z,101877.13
2019-03-28T09:16:34.318Z,101874.69
2019-03-28T09:21:37.804Z,101874.20
2019-03-28T09:26:41.285Z,101878.84
2019-03-28T09:31:44.762Z,101880.91
2019-03-28T09:36:48.241Z,101880.61
2019-03-28T09:41:51.712Z,101871.23
2019-03-28T09:46:55.844Z,101867.23
2019-03-28T09:51:59.840Z,101867.17
2019-03-28T09:57:03.311Z,101869.23
2019-03-28T10:02:06.791Z,101864.00
2019-03-28T10:07:10.264Z,101865.69
2019-03-28T10:12:13.747Z,101865.77
2019-03-28T10:17:17.224Z,101866.01
2019-03-28T10:22:22.330Z,101863.10
2019-03-28T10:27:26.057Z,101871.69
2019-03-28T10:32:29.539Z,101861.42
2019-03-28T10:37:33.018Z,101853.92
2019-03-28T10:42:36.487Z,101856.38
2019-03-28T10:47:40.040Z,101855.02
2019-03-28T10:52:43.518Z,101866.62
2019-03-28T10:57:46.992Z,101869.62
2019-03-28T11:02:50.540Z,101865.30
2019-03-28T11:07:54.041Z,101862.17
2019-03-28T11:12:57.516Z,101856.05
2019-03-28T11:18:00.987Z,101868.00
2019-03-28T11:23:04.463Z,101856.11
2019-03-28T11:28:07.993Z,101861.50
2019-03-28T11:33:11.417Z,101857.97
2019-03-28T11:38:14.888Z,101860.55
2019-03-28T11:43:18.364Z,101859.80
2019-03-28T11:48:21.840Z,101861.40
2019-03-28T11:53:25.321Z,101865.16
2019-03-28T11:58:28.787Z,101865.95
2019-03-28T12:03:32.260Z,101869.36
2019-03-28T12:08:35.732Z,101873.36
2019-03-28T12:13:44.977Z,101871.98
2019-03-28T12:18:44.414Z,101872.20
2019-03-28T12:23:47.902Z,101868.45
2019-03-28T12:28:51.365Z,101880.16
2019-03-28T12:33:54.841Z,101875.83
2019-03-28T12:38:58.315Z,101871.08
2019-03-28T12:44:01.784Z,101876.05
2019-03-28T12:49:05.265Z,101871.30
2019-03-28T12:54:10.063Z,101866.55
2019-03-28T12:59:14.704Z,101862.80
2019-03-28T13:04:18.562Z,101865.58
2019-03-28T13:09:22.049Z,101871.55
2019-03-28T13:14:25.519Z,101870.77
2019-03-28T13:19:28.989Z,101869.38
2019-03-28T13:24:32.446Z,101864.25
2019-03-28T13:29:35.904Z,101864.45
2019-03-28T13:34:39.361Z,101856.71
2019-03-28T13:39:43.669Z,101861.09
2019-03-28T13:44:47.127Z,101861.09
2019-03-28T13:49:50.584Z,101865.05
2019-03-28T13:54:54.049Z,101869.81
2019-03-28T13:59:57.503Z,101862.48
2019-03-28T14:05:00.962Z,101863.66
2019-03-28T14:10:07.561Z,101866.86
2019-03-28T14:15:11.729Z,101862.11
2019-03-28T14:20:15.829Z,101864.75
2019-03-28T14:25:19.288Z,101866.34
2019-03-28T14:30:22.752Z,101868.70
2019-03-28T14:35:26.208Z,101876.66
2019-03-28T14:40:29.736Z,101873.67
2019-03-28T14:45:33.192Z,101878.64
2019-03-28T14:50:38.383Z,101875.06
2019-03-28T14:55:41.848Z,101879.06
2019-03-28T15:00:53.433Z,101879.69
2019-03-28T15:05:56.861Z,101879.07
2019-03-28T15:11:01.017Z,101879.28
2019-03-28T15:16:04.995Z,101875.10
2019-03-28T15:21:08.453Z,101879.28
2019-03-28T15:26:11.939Z,101873.72
2019-03-28T15:31:15.373Z,101877.09
2019-03-28T15:36:18.837Z,101877.09
2019-03-28T15:41:22.311Z,101876.12
2019-03-28T15:46:25.870Z,101876.71
2019-03-28T15:51:29.324Z,101886.64
2019-03-28T15:56:32.870Z,101881.47
2019-03-28T16:01:36.334Z,101879.70
2019-03-28T16:06:39.798Z,101882.05
2019-03-28T16:11:43.265Z,101885.88
2019-03-28T16:16:46.723Z,101883.11
2019-03-28T16:21:50.258Z,101882.89
2019-03-28T16:26:53.789Z,101875.73
2019-03-28T16:31:57.249Z,101878.14
2019-03-28T16:37:01.725Z,101875.75
2019-03-28T16:42:05.449Z,101882.31
2019-03-28T16:47:08.916Z,101888.08
2019-03-28T16:52:12.377Z,101877.55
2019-03-28T16:57:15.838Z,101883.91
2019-03-28T17:02:19.311Z,101889.67
2019-03-28T17:07:25.647Z,101879.16
2019-03-28T17:12:29.152Z,101876.38
2019-03-28T17:17:32.616Z,101883.91
2019-03-28T17:22:36.082Z,101895.83
2019-03-28T17:27:39.551Z,101891.28
2019-03-28T17:32:43.089Z,101892.08
2019-03-28T17:37:46.553Z,101897.05
2019-03-28T17:42:50.189Z,101906.36
2019-03-28T17:47:53.853Z,101905.77
2019-03-28T17:52:57.379Z,101907.75
2019-03-28T17:58:00.847Z,101918.69
2019-03-28T18:03:09.576Z,101932.58
2019-03-28T18:08:09.502Z,101925.63
2019-03-28T18:13:12.965Z,101933.17
2019-03-28T18:18:16.429Z,101942.52
2019-03-28T18:23:19.887Z,101947.44
2019-03-28T18:28:23.340Z,101946.27
2019-03-28T18:33:27.583Z,101949.42
2019-03-28T18:38:31.097Z,101951.81
2019-03-28T18:43:34.602Z,101956.36
2019-03-28T18:48:38.490Z,101955.34
2019-03-28T18:53:42.088Z,101963.47
2019-03-28T18:58:45.549Z,101967.42
2019-03-28T19:03:49.014Z,101975.96
2019-03-28T19:08:53.655Z,101967.03
2019-03-28T19:13:57.216Z,101976.92
2019-03-28T19:19:00.681Z,101979.88
2019-03-28T19:24:04.307Z,101976.91
2019-03-28T19:29:07.774Z,101981.03
2019-03-28T19:34:11.236Z,101983.39
2019-03-28T19:39:17.739Z,101976.66
2019-03-28T19:44:21.270Z,101976.48
2019-03-28T19:49:24.730Z,101976.11
2019-03-28T19:54:28.190Z,101977.30
2019-03-28T19:59:31.651Z,101970.36
2019-03-28T20:04:35.115Z,101967.58
2019-03-28T20:09:38.572Z,101977.89
2019-03-28T20:14:42.034Z,101974.91
2019-03-28T20:19:45.496Z,101981.67
2019-03-28T20:24:48.952Z,101985.83
2019-03-28T20:29:52.409Z,101985.83
2019-03-28T20:34:56.202Z,101969.63
2019-03-28T20:39:59.876Z,101999.09
2019-03-28T20:45:03.616Z,101998.88
2019-03-28T20:50:07.718Z,102000.05
2019-03-28T20:55:11.160Z,101996.88
2019-03-28T21:00:15.463Z,102000.46
2019-03-28T21:05:18.915Z,102005.00
2019-03-28T21:10:25.908Z,102011.36
2019-03-28T21:15:29.363Z,102005.00
2019-03-28T21:20:32.826Z,101996.97
2019-03-28T21:25:36.284Z,102000.34
2019-03-28T21:30:47.150Z,101997.98
2019-03-28T21:35:44.936Z,101996.16
2019-03-28T21:40:48.390Z,101995.35
2019-03-28T21:45:51.854Z,101992.73
2019-03-28T21:50:55.312Z,101989.16
2019-03-28T21:55:58.767Z,101985.61
2019-03-28T22:01:02.223Z,101989.95
2019-03-28T22:06:05.683Z,101989.95
2019-03-28T22:11:09.144Z,101983.16
2019-03-28T22:16:12.604Z,101985.94
2019-03-28T22:21:16.070Z,101984.34
2019-03-28T22:26:19.538Z,101986.31
2019-03-28T22:31:22.994Z,101984.12
2019-03-28T22:36:26.453Z,101986.13
2019-03-28T22:41:29.916Z,101991.07
2019-03-28T22:46:33.371Z,101983.73
2019-03-28T22:51:36.828Z,101984.33
2019-03-28T22:56:40.288Z,101985.13
2019-03-28T23:01:43.745Z,101986.51
2019-03-28T23:06:47.206Z,101977.97
2019-03-28T23:11:50.667Z,101985.13
2019-03-28T23:16:54.887Z,101986.30
2019-03-28T23:21:58.563Z,101982.72
2019-03-28T23:27:02.028Z,101992.81
2019-03-28T23:32:05.488Z,101988.06
2019-03-28T23:37:08.958Z,101987.84
2019-03-28T23:42:12.454Z,101990.63
2019-03-28T23:47:16.746Z,101992.81
2019-03-28T23:52:20.210Z,101995.59
2019-03-28T23:57:24.004Z,101998.74
